sensor_id;sensor_type;location;lat;lon;timestamp;P1;durP1;ratioP1;P2;durP2;ratioP2
49193;SDS011;35029;50.804;12.866;2022-12-08T00:02:16;10.55;;;8.18;;
49193;SDS011;35029;50.804;12.866;2022-12-08T00:04:42;11.63;;;8.05;;
49193;SDS011;35029;50.804;12.866;2022-12-08T00:07:26;12.25;;;8.82;;
49193;SDS011;35029;50.804;12.866;2022-12-08T00:10:11;9.23;;;7.70;;
49193;SDS011;35029;50.804;12.866;2022-12-08T00:12:37;14.38;;;8.82;;
49193;SDS011;35029;50.804;12.866;2022-12-08T00:15:03;9.90;;;7.55;;
49193;SDS011;35029;50.804;12.866;2022-12-08T00:17:30;15.25;;;7.90;;
49193;SDS011;35029;50.804;12.866;2022-12-08T00:19:55;12.07;;;7.28;;
49193;SDS011;35029;50.804;12.866;2022-12-08T00:22:21;14.27;;;8.23;;
49193;SDS011;35029;50.804;12.866;2022-12-08T00:24:47;10.98;;;8.18;;
49193;SDS011;35029;50.804;12.866;2022-12-08T00:27:13;11.48;;;8.50;;
49193;SDS011;35029;50.804;12.866;2022-12-08T00:29:41;10.90;;;8.35;;
49193;SDS011;35029;50.804;12.866;2022-12-08T00:32:07;12.18;;;8.90;;
49193;SDS011;35029;50.804;12.866;2022-12-08T00:34:33;13.00;;;8.63;;
49193;SDS011;35029;50.804;12.866;2022-12-08T00:36:59;11.35;;;7.40;;
49193;SDS011;35029;50.804;12.866;2022-12-08T00:39:26;15.82;;;9.02;;
49193;SDS011;35029;50.804;12.866;2022-12-08T00:41:52;18.38;;;8.60;;
49193;SDS011;35029;50.804;12.866;2022-12-08T00:44:36;13.10;;;8.25;;
49193;SDS011;35029;50.804;12.866;2022-12-08T00:47:02;10.02;;;8.63;;
49193;SDS011;35029;50.804;12.866;2022-12-08T00:49:28;14.93;;;9.23;;
49193;SDS011;35029;50.804;12.866;2022-12-08T00:51:53;12.88;;;9.23;;
49193;SDS011;35029;50.804;12.866;2022-12-08T00:54:19;11.52;;;8.48;;
49193;SDS011;35029;50.804;12.866;2022-12-08T00:56:45;13.10;;;8.82;;
49193;SDS011;35029;50.804;12.866;2022-12-08T00:59:11;8.70;;;7.80;;
49193;SDS011;35029;50.804;12.866;2022-12-08T01:01:36;10.85;;;8.68;;
49193;SDS011;35029;50.804;12.866;2022-12-08T01:04:03;12.35;;;9.07;;
49193;SDS011;35029;50.804;12.866;2022-12-08T01:06:30;12.80;;;8.98;;
49193;SDS011;35029;50.804;12.866;2022-12-08T01:08:56;12.82;;;8.48;;
49193;SDS011;35029;50.804;12.866;2022-12-08T01:11:21;12.73;;;8.43;;
49193;SDS011;35029;50.804;12.866;2022-12-08T01:13:47;11.48;;;8.15;;
49193;SDS011;35029;50.804;12.866;2022-12-08T01:16:33;16.00;;;7.65;;
49193;SDS011;35029;50.804;12.866;2022-12-08T01:19:01;9.43;;;7.10;;
49193;SDS011;35029;50.804;12.866;2022-12-08T01:21:27;10.73;;;7.82;;
49193;SDS011;35029;50.804;12.866;2022-12-08T01:23:53;9.75;;;7.35;;
49193;SDS011;35029;50.804;12.866;2022-12-08T01:26:19;11.95;;;7.13;;
49193;SDS011;35029;50.804;12.866;2022-12-08T01:28:45;12.45;;;8.13;;
49193;SDS011;35029;50.804;12.866;2022-12-08T01:31:12;12.27;;;7.35;;
49193;SDS011;35029;50.804;12.866;2022-12-08T01:33:40;12.63;;;8.10;;
49193;SDS011;35029;50.804;12.866;2022-12-08T01:36:06;10.82;;;7.10;;
49193;SDS011;35029;50.804;12.866;2022-12-08T01:38:34;11.05;;;7.55;;
49193;SDS011;35029;50.804;12.866;2022-12-08T01:41:00;10.20;;;7.47;;
49193;SDS011;35029;50.804;12.866;2022-12-08T01:43:42;9.75;;;7.45;;
49193;SDS011;35029;50.804;12.866;2022-12-08T01:46:30;11.98;;;8.13;;
49193;SDS011;35029;50.804;12.866;2022-12-08T01:49:05;10.63;;;6.97;;
49193;SDS011;35029;50.804;12.866;2022-12-08T01:51:51;11.55;;;8.10;;
49193;SDS011;35029;50.804;12.866;2022-12-08T01:54:23;11.65;;;8.13;;
49193;SDS011;35029;50.804;12.866;2022-12-08T01:59:26;10.10;;;7.97;;
49193;SDS011;35029;50.804;12.866;2022-12-08T02:02:02;10.95;;;7.78;;
49193;SDS011;35029;50.804;12.866;2022-12-08T02:04:28;9.82;;;7.65;;
49193;SDS011;35029;50.804;12.866;2022-12-08T02:06:53;12.45;;;8.13;;
49193;SDS011;35029;50.804;12.866;2022-12-08T02:09:19;12.48;;;8.50;;
49193;SDS011;35029;50.804;12.866;2022-12-08T02:11:46;10.43;;;8.02;;
49193;SDS011;35029;50.804;12.866;2022-12-08T02:14:14;9.52;;;8.27;;
49193;SDS011;35029;50.804;12.866;2022-12-08T02:21:58;9.85;;;8.02;;
49193;SDS011;35029;50.804;12.866;2022-12-08T02:36:21;11.20;;;8.65;;
49193;SDS011;35029;50.804;12.866;2022-12-08T02:38:55;12.23;;;8.98;;
49193;SDS011;35029;50.804;12.866;2022-12-08T02:42:13;13.07;;;9.18;;
49193;SDS011;35029;50.804;12.866;2022-12-08T02:44:56;10.52;;;8.25;;
49193;SDS011;35029;50.804;12.866;2022-12-08T02:47:34;12.95;;;9.32;;
49193;SDS011;35029;50.804;12.866;2022-12-08T02:50:02;10.80;;;8.27;;
49193;SDS011;35029;50.804;12.866;2022-12-08T03:00:05;11.93;;;10.15;;
49193;SDS011;35029;50.804;12.866;2022-12-08T03:05:02;12.32;;;9.73;;
49193;SDS011;35029;50.804;12.866;2022-12-08T03:07:43;10.68;;;9.40;;
49193;SDS011;35029;50.804;12.866;2022-12-08T03:10:26;11.35;;;9.27;;
49193;SDS011;35029;50.804;12.866;2022-12-08T03:13:16;11.13;;;9.70;;
49193;SDS011;35029;50.804;12.866;2022-12-08T03:15:49;13.65;;;9.68;;
49193;SDS011;35029;50.804;12.866;2022-12-08T03:18:17;14.77;;;9.98;;
49193;SDS011;35029;50.804;12.866;2022-12-08T03:20:49;12.75;;;10.05;;
49193;SDS011;35029;50.804;12.866;2022-12-08T03:23:16;11.75;;;10.30;;
49193;SDS011;35029;50.804;12.866;2022-12-08T03:25:46;15.85;;;10.77;;
49193;SDS011;35029;50.804;12.866;2022-12-08T03:28:16;21.25;;;11.93;;
49193;SDS011;35029;50.804;12.866;2022-12-08T03:30:42;18.00;;;11.00;;
49193;SDS011;35029;50.804;12.866;2022-12-08T03:33:15;17.20;;;12.15;;
49193;SDS011;35029;50.804;12.866;2022-12-08T03:35:47;13.25;;;10.18;;
49193;SDS011;35029;50.804;12.866;2022-12-08T03:38:14;13.98;;;9.90;;
49193;SDS011;35029;50.804;12.866;2022-12-08T03:40:41;13.27;;;11.68;;
49193;SDS011;35029;50.804;12.866;2022-12-08T03:43:07;14.32;;;10.95;;
49193;SDS011;35029;50.804;12.866;2022-12-08T03:45:33;16.60;;;11.50;;
49193;SDS011;35029;50.804;12.866;2022-12-08T03:47:58;14.20;;;11.27;;
49193;SDS011;35029;50.804;12.866;2022-12-08T03:50:24;16.00;;;12.32;;
49193;SDS011;35029;50.804;12.866;2022-12-08T03:52:49;15.20;;;11.95;;
49193;SDS011;35029;50.804;12.866;2022-12-08T03:55:15;12.80;;;11.38;;
49193;SDS011;35029;50.804;12.866;2022-12-08T03:57:41;16.60;;;12.55;;
49193;SDS011;35029;50.804;12.866;2022-12-08T04:00:08;13.85;;;11.80;;
49193;SDS011;35029;50.804;12.866;2022-12-08T04:02:37;12.82;;;11.50;;
49193;SDS011;35029;50.804;12.866;2022-12-08T04:05:03;19.00;;;12.55;;
49193;SDS011;35029;50.804;12.866;2022-12-08T04:07:30;16.05;;;12.23;;
49193;SDS011;35029;50.804;12.866;2022-12-08T04:09:56;13.65;;;11.80;;
49193;SDS011;35029;50.804;12.866;2022-12-08T04:12:22;17.38;;;12.88;;
49193;SDS011;35029;50.804;12.866;2022-12-08T04:14:47;15.52;;;12.18;;
49193;SDS011;35029;50.804;12.866;2022-12-08T04:17:13;16.65;;;13.23;;
49193;SDS011;35029;50.804;12.866;2022-12-08T04:19:40;23.38;;;14.18;;
49193;SDS011;35029;50.804;12.866;2022-12-08T04:22:06;16.08;;;13.02;;
49193;SDS011;35029;50.804;12.866;2022-12-08T04:24:31;15.55;;;13.43;;
49193;SDS011;35029;50.804;12.866;2022-12-08T04:26:57;16.58;;;14.40;;
49193;SDS011;35029;50.804;12.866;2022-12-08T04:29:24;18.88;;;13.85;;
49193;SDS011;35029;50.804;12.866;2022-12-08T04:31:50;17.38;;;13.02;;
49193;SDS011;35029;50.804;12.866;2022-12-08T04:34:15;17.27;;;14.27;;
49193;SDS011;35029;50.804;12.866;2022-12-08T04:36:41;17.33;;;14.10;;
49193;SDS011;35029;50.804;12.866;2022-12-08T04:39:06;16.42;;;13.88;;
49193;SDS011;35029;50.804;12.866;2022-12-08T04:41:32;15.45;;;12.40;;
49193;SDS011;35029;50.804;12.866;2022-12-08T04:43:57;15.52;;;12.43;;
49193;SDS011;35029;50.804;12.866;2022-12-08T04:46:23;15.80;;;12.95;;
49193;SDS011;35029;50.804;12.866;2022-12-08T04:48:48;18.50;;;14.50;;
49193;SDS011;35029;50.804;12.866;2022-12-08T04:51:14;19.00;;;12.98;;
49193;SDS011;35029;50.804;12.866;2022-12-08T04:53:42;15.98;;;13.73;;
49193;SDS011;35029;50.804;12.866;2022-12-08T04:56:14;16.50;;;14.40;;
49193;SDS011;35029;50.804;12.866;2022-12-08T04:58:42;16.48;;;13.23;;
49193;SDS011;35029;50.804;12.866;2022-12-08T05:01:08;18.65;;;13.85;;
49193;SDS011;35029;50.804;12.866;2022-12-08T05:03:33;16.27;;;13.23;;
49193;SDS011;35029;50.804;12.866;2022-12-08T05:05:59;16.25;;;13.32;;
49193;SDS011;35029;50.804;12.866;2022-12-08T05:08:25;15.73;;;12.88;;
49193;SDS011;35029;50.804;12.866;2022-12-08T05:10:51;16.63;;;13.35;;
49193;SDS011;35029;50.804;12.866;2022-12-08T05:13:18;14.40;;;12.52;;
49193;SDS011;35029;50.804;12.866;2022-12-08T05:15:43;14.10;;;12.45;;
49193;SDS011;35029;50.804;12.866;2022-12-08T05:18:09;15.93;;;13.43;;
49193;SDS011;35029;50.804;12.866;2022-12-08T05:20:35;14.35;;;12.68;;
49193;SDS011;35029;50.804;12.866;2022-12-08T05:23:01;16.77;;;13.43;;
49193;SDS011;35029;50.804;12.866;2022-12-08T05:25:26;17.85;;;13.82;;
49193;SDS011;35029;50.804;12.866;2022-12-08T05:27:52;18.48;;;13.80;;
49193;SDS011;35029;50.804;12.866;2022-12-08T05:30:17;16.80;;;14.18;;
49193;SDS011;35029;50.804;12.866;2022-12-08T05:32:44;16.50;;;13.90;;
49193;SDS011;35029;50.804;12.866;2022-12-08T05:35:10;19.70;;;14.52;;
49193;SDS011;35029;50.804;12.866;2022-12-08T05:37:35;20.25;;;13.98;;
49193;SDS011;35029;50.804;12.866;2022-12-08T05:40:02;18.15;;;13.88;;
49193;SDS011;35029;50.804;12.866;2022-12-08T05:42:29;16.65;;;13.15;;
49193;SDS011;35029;50.804;12.866;2022-12-08T05:44:54;25.95;;;15.15;;
49193;SDS011;35029;50.804;12.866;2022-12-08T05:47:20;18.17;;;13.45;;
49193;SDS011;35029;50.804;12.866;2022-12-08T05:49:45;17.15;;;13.90;;
49193;SDS011;35029;50.804;12.866;2022-12-08T05:52:12;20.55;;;14.73;;
49193;SDS011;35029;50.804;12.866;2022-12-08T05:54:37;20.45;;;15.80;;
49193;SDS011;35029;50.804;12.866;2022-12-08T05:57:05;20.77;;;15.18;;
49193;SDS011;35029;50.804;12.866;2022-12-08T05:59:31;20.60;;;14.05;;
49193;SDS011;35029;50.804;12.866;2022-12-08T06:01:56;20.63;;;14.23;;
49193;SDS011;35029;50.804;12.866;2022-12-08T06:04:22;20.60;;;14.88;;
49193;SDS011;35029;50.804;12.866;2022-12-08T06:06:48;20.20;;;16.17;;
49193;SDS011;35029;50.804;12.866;2022-12-08T06:09:14;18.85;;;15.70;;
49193;SDS011;35029;50.804;12.866;2022-12-08T06:11:39;18.63;;;15.13;;
49193;SDS011;35029;50.804;12.866;2022-12-08T06:14:08;22.92;;;15.40;;
49193;SDS011;35029;50.804;12.866;2022-12-08T06:16:36;20.60;;;15.65;;
49193;SDS011;35029;50.804;12.866;2022-12-08T06:19:01;19.08;;;14.95;;
49193;SDS011;35029;50.804;12.866;2022-12-08T06:21:27;19.35;;;15.82;;
49193;SDS011;35029;50.804;12.866;2022-12-08T06:23:52;17.05;;;14.57;;
49193;SDS011;35029;50.804;12.866;2022-12-08T06:26:19;18.15;;;14.13;;
49193;SDS011;35029;50.804;12.866;2022-12-08T06:28:45;18.40;;;14.88;;
49193;SDS011;35029;50.804;12.866;2022-12-08T06:31:16;21.98;;;15.55;;
49193;SDS011;35029;50.804;12.866;2022-12-08T06:33:44;18.15;;;15.07;;
49193;SDS011;35029;50.804;12.866;2022-12-08T06:36:12;17.35;;;14.57;;
49193;SDS011;35029;50.804;12.866;2022-12-08T06:38:39;17.42;;;13.63;;
49193;SDS011;35029;50.804;12.866;2022-12-08T06:41:05;17.50;;;14.07;;
49193;SDS011;35029;50.804;12.866;2022-12-08T06:43:30;16.88;;;13.73;;
49193;SDS011;35029;50.804;12.866;2022-12-08T06:45:57;19.95;;;14.00;;
49193;SDS011;35029;50.804;12.866;2022-12-08T06:48:23;16.42;;;14.07;;
49193;SDS011;35029;50.804;12.866;2022-12-08T06:50:49;15.98;;;13.68;;
49193;SDS011;35029;50.804;12.866;2022-12-08T06:53:14;19.05;;;13.73;;
49193;SDS011;35029;50.804;12.866;2022-12-08T06:55:44;18.17;;;13.80;;
49193;SDS011;35029;50.804;12.866;2022-12-08T06:58:12;16.58;;;12.18;;
49193;SDS011;35029;50.804;12.866;2022-12-08T07:00:39;16.73;;;13.43;;
49193;SDS011;35029;50.804;12.866;2022-12-08T07:03:06;15.88;;;12.88;;
49193;SDS011;35029;50.804;12.866;2022-12-08T07:05:33;18.83;;;13.65;;
49193;SDS011;35029;50.804;12.866;2022-12-08T07:07:59;15.32;;;13.50;;
49193;SDS011;35029;50.804;12.866;2022-12-08T07:10:25;16.75;;;14.05;;
49193;SDS011;35029;50.804;12.866;2022-12-08T07:12:51;17.33;;;13.40;;
49193;SDS011;35029;50.804;12.866;2022-12-08T07:15:17;15.52;;;12.10;;
49193;SDS011;35029;50.804;12.866;2022-12-08T07:17:44;14.43;;;11.80;;
49193;SDS011;35029;50.804;12.866;2022-12-08T07:20:15;17.27;;;13.27;;
49193;SDS011;35029;50.804;12.866;2022-12-08T07:22:51;16.65;;;12.98;;
49193;SDS011;35029;50.804;12.866;2022-12-08T07:25:19;15.55;;;13.18;;
49193;SDS011;35029;50.804;12.866;2022-12-08T07:27:46;15.80;;;12.63;;
49193;SDS011;35029;50.804;12.866;2022-12-08T07:30:14;14.98;;;13.07;;
49193;SDS011;35029;50.804;12.866;2022-12-08T07:32:39;13.70;;;11.32;;
49193;SDS011;35029;50.804;12.866;2022-12-08T07:35:06;13.00;;;11.55;;
49193;SDS011;35029;50.804;12.866;2022-12-08T07:37:34;16.45;;;12.88;;
49193;SDS011;35029;50.804;12.866;2022-12-08T07:40:02;16.02;;;11.48;;
49193;SDS011;35029;50.804;12.866;2022-12-08T07:42:30;14.85;;;12.18;;
49193;SDS011;35029;50.804;12.866;2022-12-08T07:44:57;15.27;;;11.98;;
49193;SDS011;35029;50.804;12.866;2022-12-08T07:47:25;14.38;;;12.18;;
49193;SDS011;35029;50.804;12.866;2022-12-08T07:49:51;15.57;;;12.32;;
49193;SDS011;35029;50.804;12.866;2022-12-08T07:52:17;14.23;;;12.52;;
49193;SDS011;35029;50.804;12.866;2022-12-08T07:54:47;15.68;;;12.35;;
49193;SDS011;35029;50.804;12.866;2022-12-08T07:57:34;14.35;;;12.15;;
49193;SDS011;35029;50.804;12.866;2022-12-08T08:00:03;15.02;;;12.18;;
49193;SDS011;35029;50.804;12.866;2022-12-08T08:02:37;13.73;;;11.35;;
49193;SDS011;35029;50.804;12.866;2022-12-08T08:05:02;16.17;;;11.60;;
49193;SDS011;35029;50.804;12.866;2022-12-08T08:07:32;12.90;;;11.02;;
49193;SDS011;35029;50.804;12.866;2022-12-08T08:10:00;13.63;;;11.30;;
49193;SDS011;35029;50.804;12.866;2022-12-08T08:12:26;13.25;;;10.30;;
49193;SDS011;35029;50.804;12.866;2022-12-08T08:14:53;13.75;;;10.93;;
49193;SDS011;35029;50.804;12.866;2022-12-08T08:17:19;12.68;;;10.52;;
49193;SDS011;35029;50.804;12.866;2022-12-08T08:19:55;12.38;;;10.45;;
49193;SDS011;35029;50.804;12.866;2022-12-08T08:22:21;12.98;;;10.45;;
49193;SDS011;35029;50.804;12.866;2022-12-08T08:24:48;11.95;;;10.30;;
49193;SDS011;35029;50.804;12.866;2022-12-08T08:27:14;12.50;;;9.98;;
49193;SDS011;35029;50.804;12.866;2022-12-08T08:29:40;12.25;;;10.80;;
49193;SDS011;35029;50.804;12.866;2022-12-08T08:32:07;13.85;;;11.30;;
49193;SDS011;35029;50.804;12.866;2022-12-08T08:34:34;13.75;;;10.60;;
49193;SDS011;35029;50.804;12.866;2022-12-08T08:37:10;12.38;;;10.32;;
49193;SDS011;35029;50.804;12.866;2022-12-08T08:39:36;13.10;;;11.70;;
49193;SDS011;35029;50.804;12.866;2022-12-08T08:42:03;13.63;;;11.10;;
49193;SDS011;35029;50.804;12.866;2022-12-08T08:44:56;12.63;;;11.25;;
49193;SDS011;35029;50.804;12.866;2022-12-08T08:47:21;12.95;;;11.13;;
49193;SDS011;35029;50.804;12.866;2022-12-08T08:49:47;15.15;;;10.52;;
49193;SDS011;35029;50.804;12.866;2022-12-08T08:52:17;13.32;;;10.90;;
49193;SDS011;35029;50.804;12.866;2022-12-08T08:54:43;13.50;;;10.60;;
49193;SDS011;35029;50.804;12.866;2022-12-08T08:57:11;11.95;;;9.95;;
49193;SDS011;35029;50.804;12.866;2022-12-08T08:59:36;10.75;;;9.65;;
49193;SDS011;35029;50.804;12.866;2022-12-08T09:02:02;12.88;;;11.43;;
49193;SDS011;35029;50.804;12.866;2022-12-08T09:04:31;14.65;;;11.50;;
49193;SDS011;35029;50.804;12.866;2022-12-08T09:06:57;12.23;;;9.80;;
49193;SDS011;35029;50.804;12.866;2022-12-08T09:09:23;13.25;;;10.90;;
49193;SDS011;35029;50.804;12.866;2022-12-08T09:11:49;11.27;;;9.88;;
49193;SDS011;35029;50.804;12.866;2022-12-08T09:14:14;12.48;;;9.55;;
49193;SDS011;35029;50.804;12.866;2022-12-08T09:16:40;12.93;;;11.00;;
49193;SDS011;35029;50.804;12.866;2022-12-08T09:19:06;12.02;;;8.80;;
49193;SDS011;35029;50.804;12.866;2022-12-08T09:21:32;11.38;;;9.27;;
49193;SDS011;35029;50.804;12.866;2022-12-08T09:23:58;10.05;;;8.60;;
49193;SDS011;35029;50.804;12.866;2022-12-08T09:26:24;9.85;;;8.68;;
49193;SDS011;35029;50.804;12.866;2022-12-08T09:28:52;9.10;;;8.20;;
49193;SDS011;35029;50.804;12.866;2022-12-08T09:31:20;9.73;;;8.45;;
49193;SDS011;35029;50.804;12.866;2022-12-08T09:33:47;10.23;;;8.30;;
49193;SDS011;35029;50.804;12.866;2022-12-08T09:36:15;13.27;;;7.97;;
49193;SDS011;35029;50.804;12.866;2022-12-08T09:38:42;10.70;;;7.63;;
49193;SDS011;35029;50.804;12.866;2022-12-08T09:46:27;9.15;;;7.72;;
49193;SDS011;35029;50.804;12.866;2022-12-08T09:48:57;11.00;;;7.72;;
49193;SDS011;35029;50.804;12.866;2022-12-08T09:51:24;8.77;;;7.85;;
49193;SDS011;35029;50.804;12.866;2022-12-08T09:53:57;11.80;;;8.57;;
49193;SDS011;35029;50.804;12.866;2022-12-08T09:56:31;11.27;;;8.85;;
49193;SDS011;35029;50.804;12.866;2022-12-08T09:59:22;10.73;;;8.23;;
49193;SDS011;35029;50.804;12.866;2022-12-08T10:01:52;10.10;;;8.07;;
49193;SDS011;35029;50.804;12.866;2022-12-08T10:04:21;11.88;;;9.07;;
49193;SDS011;35029;50.804;12.866;2022-12-08T10:07:03;11.80;;;9.10;;
49193;SDS011;35029;50.804;12.866;2022-12-08T10:18:15;9.80;;;8.40;;
49193;SDS011;35029;50.804;12.866;2022-12-08T10:20:47;9.82;;;7.97;;
49193;SDS011;35029;50.804;12.866;2022-12-08T10:23:23;10.70;;;8.18;;
49193;SDS011;35029;50.804;12.866;2022-12-08T10:25:55;10.10;;;8.73;;
49193;SDS011;35029;50.804;12.866;2022-12-08T10:28:25;10.73;;;8.57;;
49193;SDS011;35029;50.804;12.866;2022-12-08T10:30:50;11.05;;;8.48;;
49193;SDS011;35029;50.804;12.866;2022-12-08T10:33:17;10.82;;;8.23;;
49193;SDS011;35029;50.804;12.866;2022-12-08T10:36:05;10.02;;;7.53;;
49193;SDS011;35029;50.804;12.866;2022-12-08T10:38:34;9.68;;;7.65;;
49193;SDS011;35029;50.804;12.866;2022-12-08T10:46:16;11.43;;;7.60;;
49193;SDS011;35029;50.804;12.866;2022-12-08T10:51:37;11.00;;;8.88;;
49193;SDS011;35029;50.804;12.866;2022-12-08T10:54:23;11.23;;;8.73;;
49193;SDS011;35029;50.804;12.866;2022-12-08T10:56:53;10.55;;;7.78;;
49193;SDS011;35029;50.804;12.866;2022-12-08T10:59:20;12.75;;;8.73;;
49193;SDS011;35029;50.804;12.866;2022-12-08T11:01:46;9.38;;;7.88;;
49193;SDS011;35029;50.804;12.866;2022-12-08T11:04:18;9.68;;;8.25;;
49193;SDS011;35029;50.804;12.866;2022-12-08T11:06:46;13.07;;;8.70;;
49193;SDS011;35029;50.804;12.866;2022-12-08T11:11:57;11.23;;;8.73;;
49193;SDS011;35029;50.804;12.866;2022-12-08T11:16:49;11.07;;;8.02;;
49193;SDS011;35029;50.804;12.866;2022-12-08T11:19:18;10.43;;;8.32;;
49193;SDS011;35029;50.804;12.866;2022-12-08T11:21:45;10.60;;;7.95;;
49193;SDS011;35029;50.804;12.866;2022-12-08T11:26:40;11.27;;;8.98;;
49193;SDS011;35029;50.804;12.866;2022-12-08T11:29:14;10.85;;;8.80;;
49193;SDS011;35029;50.804;12.866;2022-12-08T11:31:49;11.68;;;8.93;;
49193;SDS011;35029;50.804;12.866;2022-12-08T11:36:56;10.13;;;8.32;;
49193;SDS011;35029;50.804;12.866;2022-12-08T11:39:24;9.80;;;8.30;;
49193;SDS011;35029;50.804;12.866;2022-12-08T11:41:53;12.07;;;8.32;;
49193;SDS011;35029;50.804;12.866;2022-12-08T11:44:28;9.32;;;7.95;;
49193;SDS011;35029;50.804;12.866;2022-12-08T11:47:13;13.40;;;9.23;;
49193;SDS011;35029;50.804;12.866;2022-12-08T11:49:51;12.32;;;8.90;;
49193;SDS011;35029;50.804;12.866;2022-12-08T11:52:28;12.60;;;9.68;;
49193;SDS011;35029;50.804;12.866;2022-12-08T11:57:38;12.37;;;9.40;;
49193;SDS011;35029;50.804;12.866;2022-12-08T12:00:04;13.68;;;9.95;;
49193;SDS011;35029;50.804;12.866;2022-12-08T12:02:37;13.00;;;9.82;;
49193;SDS011;35029;50.804;12.866;2022-12-08T12:10:21;13.98;;;10.20;;
49193;SDS011;35029;50.804;12.866;2022-12-08T12:18:58;12.10;;;9.93;;
49193;SDS011;35029;50.804;12.866;2022-12-08T12:24:06;14.13;;;10.25;;
49193;SDS011;35029;50.804;12.866;2022-12-08T12:29:16;12.35;;;10.07;;
49193;SDS011;35029;50.804;12.866;2022-12-08T12:31:46;12.43;;;9.50;;
49193;SDS011;35029;50.804;12.866;2022-12-08T12:34:16;12.20;;;9.63;;
49193;SDS011;35029;50.804;12.866;2022-12-08T12:36:47;10.05;;;8.25;;
49193;SDS011;35029;50.804;12.866;2022-12-08T12:39:17;15.57;;;8.95;;
49193;SDS011;35029;50.804;12.866;2022-12-08T12:41:50;12.18;;;8.60;;
49193;SDS011;35029;50.804;12.866;2022-12-08T12:46:57;11.65;;;8.85;;
49193;SDS011;35029;50.804;12.866;2022-12-08T12:52:02;11.60;;;8.93;;
49193;SDS011;35029;50.804;12.866;2022-12-08T12:57:15;14.95;;;9.75;;
49193;SDS011;35029;50.804;12.866;2022-12-08T13:02:21;9.77;;;7.47;;
49193;SDS011;35029;50.804;12.866;2022-12-08T13:08:20;9.88;;;7.78;;
49193;SDS011;35029;50.804;12.866;2022-12-08T13:13:14;9.77;;;7.18;;
49193;SDS011;35029;50.804;12.866;2022-12-08T13:15:55;8.82;;;7.30;;
49193;SDS011;35029;50.804;12.866;2022-12-08T13:18:35;10.27;;;8.15;;
49193;SDS011;35029;50.804;12.866;2022-12-08T13:26:12;8.10;;;7.03;;
49193;SDS011;35029;50.804;12.866;2022-12-08T13:34:28;7.15;;;6.18;;
49193;SDS011;35029;50.804;12.866;2022-12-08T13:37:12;8.55;;;6.53;;
49193;SDS011;35029;50.804;12.866;2022-12-08T13:39:57;7.15;;;6.28;;
49193;SDS011;35029;50.804;12.866;2022-12-08T13:42:32;7.43;;;5.57;;
49193;SDS011;35029;50.804;12.866;2022-12-08T13:47:47;7.80;;;6.45;;
49193;SDS011;35029;50.804;12.866;2022-12-08T13:50:21;8.38;;;5.57;;
49193;SDS011;35029;50.804;12.866;2022-12-08T13:52:54;7.63;;;5.93;;
49193;SDS011;35029;50.804;12.866;2022-12-08T13:55:21;6.90;;;6.15;;
49193;SDS011;35029;50.804;12.866;2022-12-08T13:57:53;11.23;;;6.60;;
49193;SDS011;35029;50.804;12.866;2022-12-08T14:00:20;8.05;;;5.80;;
49193;SDS011;35029;50.804;12.866;2022-12-08T14:02:48;10.00;;;6.15;;
49193;SDS011;35029;50.804;12.866;2022-12-08T14:05:16;7.63;;;6.30;;
49193;SDS011;35029;50.804;12.866;2022-12-08T14:07:45;6.93;;;5.93;;
49193;SDS011;35029;50.804;12.866;2022-12-08T14:10:23;7.63;;;5.57;;
49193;SDS011;35029;50.804;12.866;2022-12-08T14:12:54;8.10;;;5.82;;
49193;SDS011;35029;50.804;12.866;2022-12-08T14:15:25;6.72;;;5.45;;
49193;SDS011;35029;50.804;12.866;2022-12-08T14:17:55;7.38;;;5.72;;
49193;SDS011;35029;50.804;12.866;2022-12-08T14:20:28;7.00;;;5.40;;
49193;SDS011;35029;50.804;12.866;2022-12-08T14:22:58;7.18;;;5.47;;
49193;SDS011;35029;50.804;12.866;2022-12-08T14:25:24;8.02;;;5.85;;
49193;SDS011;35029;50.804;12.866;2022-12-08T14:27:58;6.82;;;5.90;;
49193;SDS011;35029;50.804;12.866;2022-12-08T14:30:31;6.78;;;5.65;;
49193;SDS011;35029;50.804;12.866;2022-12-08T14:33:03;5.88;;;5.22;;
49193;SDS011;35029;50.804;12.866;2022-12-08T14:35:33;8.68;;;6.13;;
49193;SDS011;35029;50.804;12.866;2022-12-08T14:40:34;7.47;;;6.30;;
49193;SDS011;35029;50.804;12.866;2022-12-08T14:45:31;6.75;;;5.93;;
49193;SDS011;35029;50.804;12.866;2022-12-08T14:50:56;7.13;;;6.32;;
49193;SDS011;35029;50.804;12.866;2022-12-08T14:53:23;8.00;;;6.55;;
49193;SDS011;35029;50.804;12.866;2022-12-08T14:55:49;6.68;;;5.60;;
49193;SDS011;35029;50.804;12.866;2022-12-08T14:58:20;8.48;;;5.90;;
49193;SDS011;35029;50.804;12.866;2022-12-08T15:00:53;7.68;;;6.50;;
49193;SDS011;35029;50.804;12.866;2022-12-08T15:03:23;9.23;;;5.85;;
49193;SDS011;35029;50.804;12.866;2022-12-08T15:05:55;7.88;;;6.72;;
49193;SDS011;35029;50.804;12.866;2022-12-08T15:08:23;7.28;;;6.40;;
49193;SDS011;35029;50.804;12.866;2022-12-08T15:13:42;7.95;;;6.10;;
49193;SDS011;35029;50.804;12.866;2022-12-08T15:16:29;11.30;;;7.03;;
49193;SDS011;35029;50.804;12.866;2022-12-08T15:21:39;7.38;;;6.05;;
49193;SDS011;35029;50.804;12.866;2022-12-08T15:24:08;9.43;;;7.50;;
49193;SDS011;35029;50.804;12.866;2022-12-08T15:26:43;10.65;;;7.20;;
49193;SDS011;35029;50.804;12.866;2022-12-08T15:29:32;14.55;;;9.93;;
49193;SDS011;35029;50.804;12.866;2022-12-08T15:31:58;14.27;;;10.55;;
49193;SDS011;35029;50.804;12.866;2022-12-08T15:34:25;11.63;;;7.97;;
49193;SDS011;35029;50.804;12.866;2022-12-08T15:36:52;9.60;;;7.25;;
49193;SDS011;35029;50.804;12.866;2022-12-08T15:39:35;11.73;;;8.63;;
49193;SDS011;35029;50.804;12.866;2022-12-08T15:42:05;10.25;;;7.57;;
49193;SDS011;35029;50.804;12.866;2022-12-08T15:44:36;9.75;;;8.00;;
49193;SDS011;35029;50.804;12.866;2022-12-08T15:47:02;15.93;;;10.07;;
49193;SDS011;35029;50.804;12.866;2022-12-08T15:49:27;18.55;;;11.60;;
49193;SDS011;35029;50.804;12.866;2022-12-08T15:51:53;10.95;;;8.57;;
49193;SDS011;35029;50.804;12.866;2022-12-08T15:54:18;20.63;;;11.52;;
49193;SDS011;35029;50.804;12.866;2022-12-08T15:56:51;16.92;;;11.32;;
49193;SDS011;35029;50.804;12.866;2022-12-08T15:59:19;22.30;;;14.10;;
49193;SDS011;35029;50.804;12.866;2022-12-08T16:01:47;20.08;;;12.73;;
49193;SDS011;35029;50.804;12.866;2022-12-08T16:04:15;16.83;;;10.80;;
49193;SDS011;35029;50.804;12.866;2022-12-08T16:06:51;11.77;;;8.82;;
49193;SDS011;35029;50.804;12.866;2022-12-08T16:12:03;14.32;;;8.55;;
49193;SDS011;35029;50.804;12.866;2022-12-08T16:15:02;11.70;;;8.25;;
49193;SDS011;35029;50.804;12.866;2022-12-08T16:17:28;13.07;;;9.90;;
49193;SDS011;35029;50.804;12.866;2022-12-08T16:19:55;11.77;;;8.90;;
49193;SDS011;35029;50.804;12.866;2022-12-08T16:22:25;13.30;;;8.88;;
49193;SDS011;35029;50.804;12.866;2022-12-08T16:24:52;11.95;;;9.13;;
49193;SDS011;35029;50.804;12.866;2022-12-08T16:27:29;10.45;;;8.93;;
49193;SDS011;35029;50.804;12.866;2022-12-08T16:29:59;15.85;;;9.90;;
49193;SDS011;35029;50.804;12.866;2022-12-08T16:32:26;18.27;;;13.75;;
49193;SDS011;35029;50.804;12.866;2022-12-08T16:34:52;14.93;;;11.65;;
49193;SDS011;35029;50.804;12.866;2022-12-08T16:37:22;19.05;;;12.30;;
49193;SDS011;35029;50.804;12.866;2022-12-08T16:39:49;15.10;;;9.97;;